Time;durP1;ratioP1;P1;durP2;ratioP2;P2;SDS_P1;SDS_P2;PMS_P1;PMS_P2;Temp;Humidity;BMP_temperature;BMP_pressure;BME280_temperature;BME280_humidity;BME280_pressure;Samples;Min_cycle;Max_cycle;Signal;HPM_P1;HPM_P2
2023/09/28 00:02:52;;;;;;;3.08;2.40;;;20.00;99.60;;;;;;5019138;28;20032;-83
2023/09/28 00:05:19;;;;;;;3.13;2.58;;;20.00;99.50;;;;;;4999777;28;20021;-83
2023/09/28 00:07:46;;;;;;;3.72;2.25;;;20.00;99.40;;;;;;5016094;28;20021;-83
2023/09/28 00:10:14;;;;;;;3.63;2.30;;;20.00;99.40;;;;;;5015692;28;20028;-82
2023/09/28 00:12:47;;;;;;;3.78;2.50;;;20.00;99.40;;;;;;5033099;28;20017;-83
2023/09/28 00:15:13;;;;;;;2.30;2.05;;;20.00;99.40;;;;;;5033202;28;20051;-83
2023/09/28 00:17:39;;;;;;;2.53;2.10;;;20.00;99.40;;;;;;5032989;28;20030;-83
2023/09/28 00:20:13;;;;;;;3.20;2.55;;;20.00;99.30;;;;;;5015633;28;20033;-83
2023/09/28 00:22:41;;;;;;;4.15;2.45;;;20.00;99.30;;;;;;5000138;28;20163;-83
2023/09/28 00:25:09;;;;;;;3.55;2.53;;;20.10;99.30;;;;;;5015003;28;20056;-83
2023/09/28 00:27:36;;;;;;;3.05;2.50;;;20.00;99.50;;;;;;4999103;28;20420;-83
2023/09/28 00:30:03;;;;;;;2.58;2.22;;;20.00;99.20;;;;;;5015140;28;20454;-83
2023/09/28 00:32:29;;;;;;;3.08;2.47;;;20.00;99.20;;;;;;5032840;28;20025;-83
2023/09/28 00:34:55;;;;;;;3.05;2.15;;;20.00;99.10;;;;;;4998838;28;20026;-83
2023/09/28 00:37:20;;;;;;;2.65;2.38;;;20.10;99.10;;;;;;5015479;28;20029;-83
2023/09/28 00:39:48;;;;;;;4.43;2.55;;;20.00;99.10;;;;;;5019733;28;20032;-83
2023/09/28 00:42:14;;;;;;;3.53;2.70;;;20.00;99.10;;;;;;5003541;28;20018;-83
2023/09/28 00:44:39;;;;;;;2.60;2.40;;;20.10;99.00;;;;;;4986624;28;20083;-83
2023/09/28 00:47:05;;;;;;;3.03;2.53;;;20.00;99.00;;;;;;5002659;28;20059;-83
2023/09/28 00:49:31;;;;;;;3.80;2.65;;;20.00;99.00;;;;;;5019365;28;20025;-83
2023/09/28 00:51:57;;;;;;;3.35;2.28;;;20.00;99.00;;;;;;4986513;28;20507;-83
2023/09/28 00:54:23;;;;;;;2.83;2.30;;;20.00;99.00;;;;;;5019357;28;20036;-83
2023/09/28 00:56:49;;;;;;;2.90;2.45;;;20.00;99.00;;;;;;5002447;28;20025;-83
2023/09/28 00:59:15;;;;;;;2.70;2.50;;;20.00;99.10;;;;;;5002441;28;20401;-83
2023/09/28 01:01:40;;;;;;;4.10;2.67;;;20.00;99.00;;;;;;5002654;28;20017;-83
2023/09/28 01:04:07;;;;;;;3.55;2.78;;;20.00;99.00;;;;;;5036135;28;20017;-83
2023/09/28 01:06:35;;;;;;;4.70;2.53;;;20.00;99.00;;;;;;5036351;28;20069;-83
2023/09/28 01:09:06;;;;;;;3.55;2.72;;;20.00;99.00;;;;;;4986113;28;20033;-83
2023/09/28 01:11:32;;;;;;;3.33;2.80;;;20.00;99.10;;;;;;5018706;28;20013;-83
2023/09/28 01:13:58;;;;;;;3.85;2.72;;;19.90;99.10;;;;;;5001950;28;20036;-83
2023/09/28 01:16:24;;;;;;;7.65;2.90;;;19.90;99.10;;;;;;5018829;28;20111;-83
2023/09/28 01:18:50;;;;;;;2.97;2.42;;;19.90;99.10;;;;;;5018664;28;20481;-83
2023/09/28 01:21:15;;;;;;;4.63;2.72;;;19.80;99.10;;;;;;5018268;28;20031;-83
2023/09/28 01:23:41;;;;;;;2.90;2.40;;;19.80;99.10;;;;;;5018801;28;20445;-83
2023/09/28 01:26:06;;;;;;;4.10;2.90;;;19.90;99.10;;;;;;5018772;28;20021;-83
2023/09/28 01:28:33;;;;;;;4.25;2.90;;;19.90;99.10;;;;;;5018789;28;20071;-83
2023/09/28 01:30:59;;;;;;;3.55;2.65;;;19.80;99.10;;;;;;5018522;28;20025;-84
2023/09/28 01:33:25;;;;;;;3.55;2.55;;;19.80;99.10;;;;;;5002657;28;20421;-83
2023/09/28 01:35:50;;;;;;;3.13;2.50;;;19.80;99.20;;;;;;5002537;28;20026;-83
2023/09/28 01:38:25;;;;;;;5.03;2.92;;;19.80;99.20;;;;;;4998925;28;20056;-83
2023/09/28 01:40:50;;;;;;;3.65;2.90;;;19.70;99.20;;;;;;5036683;28;20022;-83
2023/09/28 01:43:16;;;;;;;4.85;3.00;;;19.70;99.20;;;;;;5039812;28;20033;-83
2023/09/28 01:45:42;;;;;;;4.15;3.10;;;19.60;99.20;;;;;;5038949;28;20014;-82
2023/09/28 01:48:08;;;;;;;3.28;2.95;;;19.60;99.20;;;;;;5022299;28;20030;-83
2023/09/28 01:50:34;;;;;;;3.80;2.80;;;19.60;99.30;;;;;;5020987;28;20033;-82
2023/09/28 01:53:00;;;;;;;3.17;2.60;;;19.60;99.30;;;;;;4984369;28;20049;-83
2023/09/28 01:55:26;;;;;;;3.90;3.05;;;19.60;99.40;;;;;;5016869;28;20026;-83
2023/09/28 01:57:52;;;;;;;4.68;2.85;;;19.60;99.40;;;;;;5015956;28;20427;-83
2023/09/28 02:00:20;;;;;;;4.28;2.85;;;19.50;99.40;;;;;;5014693;28;20022;-83
2023/09/28 02:02:46;;;;;;;5.50;3.40;;;19.50;99.40;;;;;;5014142;28;20417;-83
2023/09/28 02:05:20;;;;;;;3.88;2.90;;;19.50;99.50;;;;;;5014663;28;20022;-83
2023/09/28 02:07:46;;;;;;;3.22;2.60;;;19.40;99.50;;;;;;4998396;28;20428;-83
2023/09/28 02:10:11;;;;;;;3.60;2.65;;;19.40;99.60;;;;;;5015191;28;20054;-83
2023/09/28 02:12:44;;;;;;;3.53;2.58;;;19.40;99.60;;;;;;5014389;28;20050;-83
2023/09/28 02:15:10;;;;;;;4.60;2.67;;;19.40;99.60;;;;;;4997765;28;20117;-83
2023/09/28 02:17:37;;;;;;;3.47;2.65;;;19.40;99.70;;;;;;5014878;28;20026;-83
2023/09/28 02:20:15;;;;;;;3.58;2.63;;;19.40;99.70;;;;;;4981664;28;20040;-83
2023/09/28 02:22:46;;;;;;;3.10;2.63;;;19.40;99.80;;;;;;5015595;28;20025;-83
2023/09/28 02:25:15;;;;;;;;;;;19.40;99.80;;;;;;4998468;28;20338;-83
2023/09/28 02:27:41;;;;;;;3.92;2.83;;;19.30;99.80;;;;;;5015332;28;19957;-83
2023/09/28 02:30:11;;;;;;;5.18;2.80;;;19.30;99.80;;;;;;5013298;28;20071;-83
2023/09/28 02:32:43;;;;;;;5.53;2.80;;;19.30;99.90;;;;;;5013494;28;20064;-83
2023/09/28 02:35:10;;;;;;;3.00;2.28;;;19.30;99.90;;;;;;4982529;28;20280;-83
2023/09/28 02:37:36;;;;;;;11.30;2.90;;;19.30;99.90;;;;;;4997080;28;20189;-82
2023/09/28 02:40:05;;;;;;;5.25;2.85;;;19.20;99.90;;;;;;5013680;28;20033;-83
2023/09/28 02:42:34;;;;;;;5.63;2.97;;;19.30;99.90;;;;;;5014844;28;20018;-84
2023/09/28 02:45:00;;;;;;;4.18;2.85;;;19.20;99.90;;;;;;5015041;28;20022;-83
2023/09/28 02:47:27;;;;;;;4.15;3.00;;;19.20;99.90;;;;;;4997193;28;20056;-83
2023/09/28 02:49:54;;;;;;;3.90;2.70;;;19.20;99.90;;;;;;5013352;28;20141;-83
2023/09/28 02:52:20;;;;;;;7.28;2.88;;;19.20;99.90;;;;;;4997288;28;20476;-83
2023/09/28 02:54:46;;;;;;;5.10;2.90;;;19.20;99.90;;;;;;5013809;28;20113;-83
2023/09/28 02:57:12;;;;;;;4.50;2.90;;;19.20;99.90;;;;;;5013461;28;20053;-83
2023/09/28 02:59:38;;;;;;;4.82;2.92;;;19.20;99.90;;;;;;4997624;28;20034;-83
2023/09/28 03:02:05;;;;;;;4.28;3.22;;;19.10;99.90;;;;;;5012968;28;20458;-83
2023/09/28 03:04:33;;;;;;;4.15;2.78;;;19.10;99.90;;;;;;4997133;28;20405;-83
2023/09/28 03:07:00;;;;;;;5.88;3.17;;;19.10;99.90;;;;;;5014295;28;20401;-83
2023/09/28 03:09:27;;;;;;;4.50;2.97;;;19.10;99.90;;;;;;5014687;28;20450;-83
2023/09/28 03:11:54;;;;;;;4.07;2.80;;;19.10;99.90;;;;;;5013039;28;20477;-83
2023/09/28 03:14:21;;;;;;;4.40;2.90;;;19.00;99.90;;;;;;5013435;28;20076;-83
2023/09/28 03:16:47;;;;;;;5.80;3.13;;;19.00;99.90;;;;;;5013500;28;20026;-83
2023/09/28 03:19:13;;;;;;;3.63;2.80;;;18.90;99.90;;;;;;5013044;28;20049;-83
2023/09/28 03:21:40;;;;;;;4.82;2.75;;;18.90;99.90;;;;;;4997121;28;20045;-83
2023/09/28 03:24:08;;;;;;;5.05;2.92;;;18.90;99.90;;;;;;5013676;28;20088;-83
2023/09/28 03:26:34;;;;;;;2.97;2.33;;;18.90;99.90;;;;;;4997496;28;20022;-83
2023/09/28 03:28:59;;;;;;;4.03;2.90;;;18.90;99.90;;;;;;4997548;28;20075;-83
2023/09/28 03:31:29;;;;;;;4.30;2.97;;;18.80;99.90;;;;;;5019290;28;20094;-83
2023/09/28 03:33:55;;;;;;;6.22;3.38;;;18.80;99.90;;;;;;5037877;28;20085;-83
2023/09/28 03:36:24;;;;;;;3.45;2.88;;;18.80;99.90;;;;;;5037734;28;20021;-82
2023/09/28 03:38:50;;;;;;;6.80;2.95;;;18.80;99.90;;;;;;5050537;28;20110;-82
2023/09/28 03:41:17;;;;;;;4.40;2.67;;;18.80;99.90;;;;;;5039499;28;20014;-83
2023/09/28 03:43:43;;;;;;;4.53;2.80;;;18.80;99.90;;;;;;5024778;28;20033;-83
2023/09/28 03:46:09;;;;;;;4.65;3.13;;;18.70;99.90;;;;;;5000820;28;20025;-83
2023/09/28 03:48:35;;;;;;;4.35;2.83;;;18.80;99.90;;;;;;5016525;28;20351;-83
2023/09/28 03:51:01;;;;;;;4.97;3.40;;;18.70;99.90;;;;;;5033869;28;20020;-83
2023/09/28 03:53:27;;;;;;;4.22;2.85;;;18.80;99.90;;;;;;5016036;28;20021;-83
2023/09/28 03:55:53;;;;;;;3.22;2.90;;;18.70;99.90;;;;;;5016422;28;20068;-83
2023/09/28 03:58:18;;;;;;;5.60;3.50;;;18.70;99.90;;;;;;5016241;28;20037;-83
2023/09/28 04:00:44;;;;;;;5.15;3.05;;;18.70;99.90;;;;;;5000101;28;20401;-83
2023/09/28 04:03:11;;;;;;;5.25;3.35;;;18.70;99.90;;;;;;5015688;28;20460;-83
2023/09/28 04:05:38;;;;;;;5.03;3.15;;;18.70;99.90;;;;;;5033867;28;20084;-83
2023/09/28 04:08:04;;;;;;;3.08;2.78;;;18.70;99.90;;;;;;5016023;28;20025;-83
2023/09/28 04:10:33;;;;;;;4.80;3.15;;;18.70;99.90;;;;;;4999445;28;20489;-83
2023/09/28 04:13:01;;;;;;;4.47;3.30;;;18.70;99.90;;;;;;5001157;28;20029;-83
2023/09/28 04:15:26;;;;;;;5.20;3.42;;;18.70;99.90;;;;;;5019813;28;20013;-83
2023/09/28 04:17:52;;;;;;;8.43;3.20;;;18.70;99.90;;;;;;5020373;28;20037;-83
2023/09/28 04:20:18;;;;;;;3.80;2.80;;;18.70;99.90;;;;;;5020137;28;20461;-83
2023/09/28 04:22:43;;;;;;;4.85;3.03;;;18.70;99.90;;;;;;4986694;28;20028;-83
2023/09/28 04:25:10;;;;;;;3.78;3.40;;;18.70;99.90;;;;;;5003060;28;20072;-83
2023/09/28 04:27:35;;;;;;;4.75;3.17;;;18.70;99.90;;;;;;5037537;28;20048;-83
2023/09/28 04:30:01;;;;;;;4.35;3.13;;;18.70;99.90;;;;;;4986919;28;20021;-83
2023/09/28 04:32:27;;;;;;;3.70;3.05;;;18.70;99.90;;;;;;5037204;28;20406;-83
2023/09/28 04:34:53;;;;;;;3.92;3.25;;;18.70;99.90;;;;;;5036879;28;20120;-83
2023/09/28 04:37:19;;;;;;;5.38;3.22;;;18.70;99.90;;;;;;5002787;28;20030;-83
2023/09/28 04:39:45;;;;;;;5.30;3.20;;;18.70;99.90;;;;;;5003079;28;20030;-83
2023/09/28 04:42:12;;;;;;;4.35;3.63;;;18.70;99.90;;;;;;5018304;28;20449;-83
2023/09/28 04:44:39;;;;;;;4.88;3.25;;;18.70;99.90;;;;;;5002584;28;20025;-83
2023/09/28 04:47:04;;;;;;;5.13;3.50;;;18.60;99.90;;;;;;5003082;28;20079;-83
2023/09/28 04:49:30;;;;;;;3.95;2.95;;;18.60;99.90;;;;;;5002335;28;20427;-83
2023/09/28 04:51:56;;;;;;;4.25;3.25;;;18.60;99.90;;;;;;5002286;28;20026;-82
2023/09/28 04:54:22;;;;;;;4.57;3.05;;;18.60;99.90;;;;;;5018487;28;20026;-82
2023/09/28 04:56:47;;;;;;;4.28;3.28;;;18.60;99.90;;;;;;5018346;28;20022;-83
2023/09/28 04:59:13;;;;;;;4.57;3.17;;;18.60;99.90;;;;;;5002227;28;20034;-83
2023/09/28 05:01:39;;;;;;;4.78;3.50;;;18.50;99.90;;;;;;5018954;28;20040;-83
2023/09/28 05:04:05;;;;;;;3.72;3.30;;;18.50;99.90;;;;;;5002180;28;20025;-83
2023/09/28 05:06:30;;;;;;;3.67;3.17;;;18.50;99.90;;;;;;5002335;28;20053;-83
2023/09/28 05:08:56;;;;;;;4.38;3.40;;;18.50;99.90;;;;;;5018474;28;20108;-83
2023/09/28 05:11:22;;;;;;;5.53;4.00;;;18.40;99.90;;;;;;5036156;28;20022;-83
2023/09/28 05:13:47;;;;;;;4.43;3.17;;;18.40;99.90;;;;;;5018794;28;20457;-83
2023/09/28 05:16:13;;;;;;;4.20;3.63;;;18.40;99.90;;;;;;5002891;28;20026;-83
2023/09/28 05:18:39;;;;;;;5.88;3.67;;;18.40;99.90;;;;;;5019154;28;20369;-83
2023/09/28 05:21:05;;;;;;;4.75;3.55;;;18.40;99.90;;;;;;4986156;28;20068;-83
2023/09/28 05:23:31;;;;;;;5.97;4.20;;;18.40;99.90;;;;;;5019090;28;20025;-83
2023/09/28 05:25:56;;;;;;;4.93;3.67;;;18.40;99.90;;;;;;5019941;28;20068;-83
2023/09/28 05:28:22;;;;;;;5.13;3.55;;;18.40;99.90;;;;;;5036329;28;20029;-83
2023/09/28 05:30:48;;;;;;;6.82;3.80;;;18.40;99.90;;;;;;5010675;28;20018;-83
2023/09/28 05:33:13;;;;;;;5.65;3.75;;;18.40;99.90;;;;;;5042395;28;20026;-83
2023/09/28 05:35:40;;;;;;;4.18;3.22;;;18.40;99.90;;;;;;5014406;28;20425;-82
2023/09/28 05:38:05;;;;;;;6.03;3.30;;;18.40;99.90;;;;;;5003597;28;20053;-83
2023/09/28 05:40:31;;;;;;;5.68;3.75;;;18.40;99.90;;;;;;5054200;28;20033;-82
2023/09/28 05:42:57;;;;;;;5.20;3.40;;;18.40;99.90;;;;;;5008008;28;20026;-83
2023/09/28 05:45:22;;;;;;;3.90;3.35;;;18.40;99.90;;;;;;4986064;28;20097;-83
2023/09/28 05:47:48;;;;;;;4.95;3.67;;;18.40;99.90;;;;;;4985492;28;20141;-83
2023/09/28 05:50:15;;;;;;;4.25;3.33;;;18.40;99.90;;;;;;5002008;28;20013;-83
2023/09/28 05:52:41;;;;;;;6.55;3.80;;;18.40;99.90;;;;;;5035756;28;20022;-83
2023/09/28 05:55:07;;;;;;;4.28;3.40;;;18.30;99.90;;;;;;5001663;28;20022;-83
2023/09/28 05:57:33;;;;;;;6.18;3.55;;;18.30;99.90;;;;;;5035785;28;20087;-83
2023/09/28 05:59:59;;;;;;;4.07;3.28;;;18.30;99.90;;;;;;5035450;28;20464;-83
2023/09/28 06:02:24;;;;;;;6.97;3.90;;;18.30;99.90;;;;;;5018039;28;20108;-82
2023/09/28 06:04:50;;;;;;;5.70;3.30;;;18.30;99.90;;;;;;5001356;28;20067;-82
2023/09/28 06:07:16;;;;;;;5.65;3.35;;;18.30;99.90;;;;;;5018129;28;20103;-83
2023/09/28 06:09:42;;;;;;;6.20;3.60;;;18.30;99.90;;;;;;5001243;28;20068;-82
2023/09/28 06:12:08;;;;;;;4.80;3.53;;;18.30;99.90;;;;;;5001850;28;20029;-82
2023/09/28 06:14:34;;;;;;;5.38;3.35;;;18.30;99.90;;;;;;5018030;28;20029;-83
2023/09/28 06:17:00;;;;;;;6.30;3.40;;;18.30;99.90;;;;;;5001341;28;20028;-83
2023/09/28 06:19:27;;;;;;;5.45;3.40;;;18.30;99.90;;;;;;5035294;28;20025;-83
2023/09/28 06:21:54;;;;;;;6.68;3.38;;;18.20;99.90;;;;;;5017435;28;20404;-83
2023/09/28 06:24:20;;;;;;;6.32;3.40;;;18.20;99.90;;;;;;5035285;28;20049;-83
2023/09/28 06:26:53;;;;;;;5.10;3.80;;;18.30;99.90;;;;;;5017467;28;20075;-83
2023/09/28 06:29:18;;;;;;;6.07;3.65;;;18.20;99.90;;;;;;5018634;28;20025;-83
2023/09/28 06:31:44;;;;;;;6.85;3.65;;;18.20;99.90;;;;;;5000861;28;20025;-83
2023/09/28 06:34:10;;;;;;;6.88;3.97;;;18.20;99.90;;;;;;5017198;28;20025;-82
2023/09/28 06:36:36;;;;;;;5.57;3.70;;;18.20;99.90;;;;;;5000392;28;20025;-83
2023/09/28 06:39:03;;;;;;;6.05;3.97;;;18.30;99.90;;;;;;5016975;28;20049;-83
2023/09/28 06:41:30;;;;;;;4.53;2.75;;;18.20;99.90;;;;;;5017028;28;20030;-83
2023/09/28 06:43:56;;;;;;;5.25;3.47;;;18.20;99.90;;;;;;5000869;28;20032;-83
2023/09/28 06:46:21;;;;;;;6.20;3.53;;;18.20;99.90;;;;;;5034578;28;20105;-83
2023/09/28 06:48:49;;;;;;;6.18;3.85;;;18.20;99.90;;;;;;5016995;28;20079;-83
2023/09/28 06:51:15;;;;;;;5.10;3.25;;;18.30;99.90;;;;;;5017083;28;20022;-83
2023/09/28 06:53:41;;;;;;;6.88;3.58;;;18.20;99.90;;;;;;5000725;28;20480;-82
2023/09/28 06:56:07;;;;;;;7.15;3.58;;;18.20;99.90;;;;;;5034748;28;20096;-82
2023/09/28 06:58:32;;;;;;;6.28;3.75;;;18.30;99.90;;;;;;5000626;28;20469;-82
2023/09/28 07:00:58;;;;;;;6.68;3.88;;;18.30;99.90;;;;;;5034799;28;20041;-82
2023/09/28 07:03:25;;;;;;;6.35;3.30;;;18.30;99.90;;;;;;5000395;28;20033;-83
2023/09/28 07:05:52;;;;;;;8.27;3.83;;;18.40;99.90;;;;;;5016894;28;20029;-83
2023/09/28 07:08:17;;;;;;;8.02;4.00;;;18.40;99.90;;;;;;5017295;28;20033;-83
2023/09/28 07:10:44;;;;;;;8.48;3.40;;;18.40;99.90;;;;;;5001101;28;20492;-83
2023/09/28 07:13:11;;;;;;;8.93;3.53;;;18.40;99.90;;;;;;5030439;28;20022;-82
2023/09/28 07:15:36;;;;;;;10.15;3.97;;;18.40;99.90;;;;;;5041562;28;20009;-83
2023/09/28 07:18:05;;;;;;;8.57;3.95;;;18.40;99.90;;;;;;5040759;28;20029;-82
2023/09/28 07:20:31;;;;;;;7.85;3.55;;;18.50;99.90;;;;;;5039914;28;20020;-81
2023/09/28 07:22:56;;;;;;;7.72;3.17;;;18.50;99.90;;;;;;5037975;28;20053;-79
2023/09/28 07:25:25;;;;;;;13.85;4.32;;;18.50;99.90;;;;;;5035866;28;20408;-82
2023/09/28 07:27:52;;;;;;;8.75;3.58;;;18.50;99.90;;;;;;5000920;28;20079;-83
2023/09/28 07:30:22;;;;;;;9.88;3.85;;;18.50;99.90;;;;;;5034303;28;20450;-82
2023/09/28 07:32:48;;;;;;;9.95;3.28;;;18.60;99.90;;;;;;5001530;28;20052;-83
2023/09/28 07:35:15;;;;;;;12.18;3.92;;;18.60;99.90;;;;;;5000150;28;20081;-83
2023/09/28 07:37:42;;;;;;;10.35;3.00;;;18.60;99.90;;;;;;5015896;28;20072;-83
2023/09/28 07:40:13;;;;;;;11.07;3.70;;;18.60;99.90;;;;;;4983613;28;20021;-83
2023/09/28 07:42:44;;;;;;;12.32;3.17;;;18.70;99.90;;;;;;5016277;28;20114;-82
2023/09/28 07:45:18;;;;;;;12.98;3.45;;;18.70;99.90;;;;;;5016263;28;20032;-82
2023/09/28 07:47:44;;;;;;;12.93;3.78;;;18.70;99.90;;;;;;4999674;28;20164;-82
2023/09/28 07:50:14;;;;;;;9.70;3.35;;;18.80;99.90;;;;;;5016076;28;20029;-82
2023/09/28 07:52:42;;;;;;;15.82;3.83;;;18.70;99.90;;;;;;5000205;28;20461;-83
2023/09/28 07:55:08;;;;;;;12.40;3.55;;;18.80;99.90;;;;;;5033526;28;20080;-83
2023/09/28 07:57:35;;;;;;;9.80;3.60;;;18.80;99.90;;;;;;4999643;28;20022;-83
2023/09/28 08:00:00;;;;;;;13.35;3.13;;;18.80;99.90;;;;;;5033518;28;20022;-82
2023/09/28 08:02:27;;;;;;;12.70;4.05;;;18.90;99.90;;;;;;5033638;28;20072;-83
2023/09/28 08:04:53;;;;;;;11.73;3.22;;;18.90;99.90;;;;;;4983523;28;20021;-83
2023/09/28 08:07:19;;;;;;;13.38;4.20;;;18.90;99.90;;;;;;5015684;28;20404;-83
2023/09/28 08:09:47;;;;;;;13.55;3.72;;;18.90;99.90;;;;;;5033132;28;20025;-83
2023/09/28 08:12:13;;;;;;;10.07;3.50;;;18.90;99.90;;;;;;5015957;28;20052;-82
2023/09/28 08:14:39;;;;;;;14.32;4.00;;;19.00;99.90;;;;;;5033314;28;20534;-83
2023/09/28 08:17:04;;;;;;;13.70;3.28;;;19.00;99.90;;;;;;4999477;28;20029;-83
2023/09/28 08:19:30;;;;;;;12.27;3.40;;;19.10;99.90;;;;;;5015538;28;20437;-83
2023/09/28 08:21:56;;;;;;;15.45;3.78;;;19.10;99.90;;;;;;4999361;28;20079;-83
2023/09/28 08:24:21;;;;;;;11.77;3.60;;;19.10;99.90;;;;;;5015842;28;20022;-83
2023/09/28 08:26:47;;;;;;;10.98;3.35;;;19.10;99.90;;;;;;5015849;28;20025;-83
2023/09/28 08:29:13;;;;;;;13.15;3.47;;;19.10;99.90;;;;;;5015607;28;20025;-81
2023/09/28 08:31:39;;;;;;;15.95;3.60;;;19.20;99.90;;;;;;5015687;28;20037;-81
2023/09/28 08:34:05;;;;;;;10.50;3.17;;;19.20;99.90;;;;;;5015433;28;20126;-81
2023/09/28 08:36:32;;;;;;;13.63;4.15;;;19.30;99.90;;;;;;5033427;28;20060;-81
2023/09/28 08:38:58;;;;;;;11.80;3.58;;;19.30;99.90;;;;;;5015300;28;20057;-81
2023/09/28 08:41:37;;;;;;;11.23;3.30;;;19.30;99.90;;;;;;5033367;28;20461;-81
2023/09/28 08:44:05;;;;;;;14.02;3.83;;;19.40;99.90;;;;;;5015472;28;20017;-80
2023/09/28 08:46:38;;;;;;;13.68;3.72;;;19.40;99.90;;;;;;5033015;28;20026;-81
2023/09/28 08:49:09;;;;;;;15.20;4.43;;;19.50;99.90;;;;;;5015413;28;20028;-81
2023/09/28 08:51:36;;;;;;;13.55;3.53;;;19.40;99.90;;;;;;5016724;28;20104;-81
2023/09/28 08:54:05;;;;;;;15.27;3.90;;;19.40;99.90;;;;;;5033194;28;20031;-81
2023/09/28 08:56:42;;;;;;;14.65;3.47;;;19.50;99.90;;;;;;5033790;28;20169;-81
2023/09/28 08:59:09;;;;;;;12.02;3.75;;;19.50;99.90;;;;;;5035111;28;20022;-81
2023/09/28 09:01:36;;;;;;;11.40;3.65;;;19.60;99.90;;;;;;5037595;28;20535;-81
2023/09/28 09:04:03;;;;;;;12.40;3.60;;;19.60;99.80;;;;;;5029626;28;20014;-81
2023/09/28 09:06:30;;;;;;;12.45;3.45;;;19.60;99.80;;;;;;5028076;28;20017;-81
2023/09/28 09:09:06;;;;;;;15.00;4.07;;;19.70;99.60;;;;;;5060799;28;20025;-81
2023/09/28 09:11:33;;;;;;;11.90;3.47;;;19.60;99.50;;;;;;5059858;28;20021;-80
2023/09/28 09:14:00;;;;;;;14.02;4.10;;;19.70;99.50;;;;;;5042670;28;20014;-81
2023/09/28 09:16:30;;;;;;;11.48;3.45;;;19.70;99.40;;;;;;5027754;28;20033;-81
2023/09/28 09:18:56;;;;;;;13.68;3.92;;;19.80;99.20;;;;;;5019486;28;20025;-80
2023/09/28 09:21:22;;;;;;;11.30;3.47;;;19.70;99.00;;;;;;5018672;28;20339;-80
2023/09/28 09:24:05;;;;;;;9.65;3.30;;;19.80;99.00;;;;;;5036476;28;20013;-81
2023/09/28 09:26:42;;;;;;;12.70;3.40;;;19.80;98.90;;;;;;5002817;28;20079;-80
2023/09/28 09:29:09;;;;;;;12.30;3.65;;;19.80;99.00;;;;;;5036429;28;20047;-81
2023/09/28 09:31:38;;;;;;;14.40;3.10;;;19.80;98.90;;;;;;5002524;28;20029;-80
2023/09/28 09:34:05;;;;;;;11.07;3.28;;;19.80;98.90;;;;;;5018240;28;20022;-81
2023/09/28 09:36:30;;;;;;;11.80;3.05;;;19.80;98.90;;;;;;5036457;28;20061;-81
2023/09/28 09:38:58;;;;;;;10.02;3.00;;;19.90;98.90;;;;;;5018304;28;20073;-81
2023/09/28 09:41:24;;;;;;;9.88;2.95;;;19.90;98.90;;;;;;5018113;28;20030;-81
2023/09/28 09:43:54;;;;;;;9.30;3.17;;;20.00;98.80;;;;;;5001756;28;20017;-81
2023/09/28 09:46:20;;;;;;;10.18;3.20;;;20.10;98.70;;;;;;5018464;28;20047;-81
2023/09/28 09:48:46;;;;;;;12.00;3.30;;;20.10;98.70;;;;;;5018239;28;20025;-81
2023/09/28 09:51:17;;;;;;;13.90;3.17;;;20.10;98.60;;;;;;5018066;28;20109;-81
2023/09/28 09:53:44;;;;;;;9.15;3.25;;;20.20;98.60;;;;;;5001953;28;20026;-81
2023/09/28 09:56:11;;;;;;;13.52;3.35;;;20.20;98.50;;;;;;5001658;28;20034;-81
2023/09/28 09:58:48;;;;;;;15.27;3.63;;;20.30;98.60;;;;;;5035640;28;20021;-81
2023/09/28 10:01:16;;;;;;;12.05;3.10;;;20.30;98.60;;;;;;5018304;28;20457;-81
2023/09/28 10:03:50;;;;;;;11.68;3.38;;;20.30;98.60;;;;;;5018046;28;20469;-83
2023/09/28 10:06:19;;;;;;;15.45;3.90;;;20.40;98.50;;;;;;5001626;28;20021;-83
2023/09/28 10:08:46;;;;;;;13.13;3.45;;;20.40;98.50;;;;;;5017924;28;20030;-83
2023/09/28 10:11:13;;;;;;;12.70;4.10;;;20.40;98.50;;;;;;5034345;28;20025;-83
2023/09/28 10:13:39;;;;;;;13.70;3.60;;;20.50;98.30;;;;;;5017874;28;20151;-83
2023/09/28 10:16:08;;;;;;;15.45;3.90;;;20.50;98.20;;;;;;5017666;28;20049;-83
2023/09/28 10:18:36;;;;;;;9.88;3.30;;;20.50;98.20;;;;;;5017655;28;20334;-83
2023/09/28 10:21:02;;;;;;;12.30;3.38;;;20.50;98.20;;;;;;5035314;28;20468;-83
2023/09/28 10:23:29;;;;;;;8.60;3.05;;;20.60;98.20;;;;;;5017196;28;20017;-83
2023/09/28 10:25:59;;;;;;;12.98;3.78;;;20.70;98.10;;;;;;5001275;28;20120;-82
2023/09/28 10:28:25;;;;;;;11.00;3.13;;;20.70;98.10;;;;;;5017502;28;20026;-83
2023/09/28 10:31:13;;;;;;;11.50;3.45;;;20.70;98.00;;;;;;5035158;28;20453;-83
2023/09/28 10:34:02;;;;;;;11.68;3.55;;;20.70;98.00;;;;;;5035124;28;20445;-83
2023/09/28 10:36:30;;;;;;;12.85;3.55;;;20.80;97.90;;;;;;5001224;28;20055;-83
2023/09/28 10:39:14;;;;;;;11.98;3.60;;;20.80;97.90;;;;;;4997277;28;20088;-83
2023/09/28 10:41:46;;;;;;;12.55;3.60;;;20.90;97.80;;;;;;5015323;28;20026;-83
2023/09/28 10:44:21;;;;;;;9.35;3.28;;;20.90;97.80;;;;;;5015166;28;20362;-83
2023/09/28 10:46:51;;;;;;;13.65;3.20;;;21.00;97.80;;;;;;5014041;28;20099;-83
2023/09/28 10:49:27;;;;;;;9.40;2.93;;;21.00;97.80;;;;;;4997857;28;20044;-83
2023/09/28 10:51:56;;;;;;;10.60;3.55;;;21.00;97.80;;;;;;5013972;28;20080;-83
2023/09/28 10:54:24;;;;;;;13.55;3.38;;;21.10;97.80;;;;;;4997290;28;20037;-83
2023/09/28 10:56:50;;;;;;;16.98;3.92;;;21.10;97.70;;;;;;5013866;28;20024;-83
2023/09/28 10:59:18;;;;;;;11.70;3.50;;;21.10;97.70;;;;;;4997576;28;20034;-83
2023/09/28 11:01:48;;;;;;;12.38;2.92;;;21.20;97.70;;;;;;5015463;28;20022;-83
2023/09/28 11:04:15;;;;;;;11.77;3.95;;;21.30;97.60;;;;;;4994278;28;20010;-83
2023/09/28 11:06:43;;;;;;;13.20;3.58;;;21.30;97.50;;;;;;5038427;28;20021;-83
2023/09/28 11:09:09;;;;;;;11.23;3.40;;;21.40;97.40;;;;;;5022518;28;20033;-83
2023/09/28 11:11:39;;;;;;;11.68;3.67;;;21.40;97.30;;;;;;5038426;28;20022;-82
2023/09/28 11:14:05;;;;;;;14.10;3.38;;;21.50;97.30;;;;;;5038466;28;20017;-83
2023/09/28 11:16:35;;;;;;;10.10;3.47;;;21.50;97.20;;;;;;5025334;28;20053;-83
2023/09/28 11:19:01;;;;;;;9.35;3.00;;;21.50;97.10;;;;;;5013875;28;20049;-83
2023/09/28 11:21:29;;;;;;;13.45;3.05;;;21.50;97.00;;;;;;4996675;28;20025;-83
2023/09/28 11:23:55;;;;;;;11.25;3.10;;;21.50;96.90;;;;;;5013282;28;20053;-83
2023/09/28 11:26:24;;;;;;;12.65;3.65;;;21.50;96.80;;;;;;5013390;28;20418;-83
2023/09/28 11:28:51;;;;;;;11.50;3.58;;;21.60;96.70;;;;;;5013372;28;20488;-83
2023/09/28 11:31:17;;;;;;;12.93;3.50;;;21.50;96.60;;;;;;5012748;28;20083;-83
2023/09/28 11:33:45;;;;;;;13.60;3.63;;;21.50;96.60;;;;;;5014518;28;20026;-83
2023/09/28 11:36:21;;;;;;;12.65;3.38;;;21.50;96.60;;;;;;5014338;28;20018;-83
2023/09/28 11:38:52;;;;;;;10.38;3.30;;;21.60;96.50;;;;;;4996360;28;20060;-83
2023/09/28 11:41:18;;;;;;;13.38;3.92;;;21.50;96.40;;;;;;5014229;28;20041;-82
2023/09/28 11:43:56;;;;;;;10.48;3.50;;;21.50;96.40;;;;;;5013156;28;20084;-83
2023/09/28 11:46:32;;;;;;;11.15;3.72;;;21.50;96.40;;;;;;4996471;28;20022;-83
2023/09/28 11:49:16;;;;;;;12.23;3.33;;;21.50;96.40;;;;;;5012623;28;20032;-83
2023/09/28 11:51:43;;;;;;;12.95;3.28;;;21.50;96.40;;;;;;5012847;28;20476;-83
2023/09/28 11:54:13;;;;;;;11.90;3.35;;;21.50;96.50;;;;;;4996640;28;20022;-83
2023/09/28 11:56:43;;;;;;;8.55;2.67;;;21.60;96.50;;;;;;5013930;28;20109;-83
2023/09/28 11:59:09;;;;;;;11.55;3.13;;;21.60;96.50;;;;;;4996756;28;20465;-83
2023/09/28 12:01:35;;;;;;;9.50;3.15;;;21.60;96.60;;;;;;4996362;28;20021;-82
2023/09/28 12:04:01;;;;;;;14.73;3.92;;;21.60;96.90;;;;;;4996610;28;20079;-83
2023/09/28 12:06:27;;;;;;;11.13;3.22;;;21.60;96.60;;;;;;4996415;28;20037;-83
2023/09/28 12:08:53;;;;;;;10.73;2.97;;;21.70;96.60;;;;;;5013613;28;20060;-83
2023/09/28 12:11:19;;;;;;;13.38;4.03;;;21.70;96.50;;;;;;4996120;28;20034;-83
2023/09/28 12:13:46;;;;;;;11.52;3.22;;;21.70;96.50;;;;;;4996249;28;20045;-83
2023/09/28 12:16:12;;;;;;;11.52;3.30;;;21.70;96.50;;;;;;4996496;28;20057;-83
2023/09/28 12:18:38;;;;;;;14.95;2.97;;;21.70;96.40;;;;;;4996057;28;20489;-83
2023/09/28 12:21:04;;;;;;;12.52;3.72;;;21.70;96.30;;;;;;4979970;28;20026;-83
2023/09/28 12:23:29;;;;;;;13.23;3.90;;;21.70;96.20;;;;;;4996268;28;20504;-83
2023/09/28 12:25:55;;;;;;;10.98;3.30;;;21.70;96.20;;;;;;4996112;28;20537;-83
2023/09/28 12:28:24;;;;;;;8.68;2.80;;;21.70;96.20;;;;;;4979952;28;20026;-83
2023/09/28 12:30:50;;;;;;;12.98;3.33;;;21.70;96.20;;;;;;4996417;28;20026;-83
2023/09/28 12:33:16;;;;;;;13.38;4.05;;;21.80;96.10;;;;;;4996546;28;20018;-83
2023/09/28 12:35:45;;;;;;;10.02;3.33;;;21.70;96.10;;;;;;5016349;28;20022;-83
2023/09/28 12:38:10;;;;;;;11.45;3.00;;;21.70;96.10;;;;;;5000202;28;20429;-83
2023/09/28 12:40:36;;;;;;;11.15;3.10;;;21.70;96.10;;;;;;5000312;28;20033;-83
2023/09/28 12:43:05;;;;;;;12.02;3.13;;;21.70;96.10;;;;;;5017495;28;20029;-83
2023/09/28 12:45:32;;;;;;;9.13;2.75;;;21.70;96.10;;;;;;5016178;28;20432;-83